createdAt,value
2022-10-11T00:01:10.950Z,8.17
2022-10-11T00:03:41.012Z,15.23
2022-10-11T00:06:09.812Z,11.70
2022-10-11T00:08:38.507Z,13.47
2022-10-11T00:11:09.520Z,11.27
2022-10-11T00:13:38.138Z,13.17
2022-10-11T00:16:10.177Z,14.03
2022-10-11T00:18:40.544Z,13.13
2022-10-11T00:21:16.177Z,11.47
2022-10-11T00:23:45.397Z,10.93
2022-10-11T00:26:13.948Z,15.40
2022-10-11T00:28:43.577Z,11.40
2022-10-11T00:31:15.038Z,11.57
2022-10-11T00:33:45.068Z,13.80
2022-10-11T00:36:16.231Z,9.50
2022-10-11T00:38:45.387Z,12.60
2022-10-11T00:41:14.959Z,12.17
2022-10-11T00:43:43.691Z,7.87
2022-10-11T00:46:31.129Z,10.30
2022-10-11T00:49:04.652Z,9.30
2022-10-11T00:51:48.438Z,14.13
2022-10-11T00:54:20.641Z,14.40
2022-10-11T00:56:53.398Z,9.30
2022-10-11T00:59:26.996Z,12.20
2022-10-11T01:01:55.594Z,13.33
2022-10-11T01:04:26.225Z,8.80
2022-10-11T01:06:56.269Z,7.93
2022-10-11T01:09:25.856Z,8.33
2022-10-11T01:11:57.781Z,9.23
2022-10-11T01:14:59.199Z,9.90
2022-10-11T01:17:37.765Z,11.23
2022-10-11T01:20:32.250Z,9.23
2022-10-11T01:23:34.922Z,10.63
2022-10-11T01:26:35.744Z,9.67
2022-10-11T01:29:17.139Z,11.60
2022-10-11T01:31:52.717Z,8.57
2022-10-11T01:34:33.030Z,11.90
2022-10-11T01:37:07.293Z,10.03
2022-10-11T01:39:40.571Z,9.23
2022-10-11T01:42:11.327Z,9.17
2022-10-11T01:44:43.295Z,10.07
2022-10-11T01:47:13.161Z,10.40
2022-10-11T01:49:42.269Z,8.77
2022-10-11T01:52:13.041Z,11.87
2022-10-11T01:57:57.968Z,8.70
2022-10-11T02:00:29.570Z,8.67
2022-10-11T02:03:17.792Z,11.47
2022-10-11T02:05:53.265Z,11.60
2022-10-11T02:08:28.817Z,9.40
2022-10-11T02:11:03.422Z,11.80
2022-10-11T02:13:35.773Z,7.93
2022-10-11T02:16:10.887Z,9.67
2022-10-11T02:18:45.610Z,9.67
2022-10-11T02:21:17.912Z,9.30
2022-10-11T02:23:52.685Z,8.13
2022-10-11T02:26:23.110Z,10.90
2022-10-11T02:28:55.467Z,11.27
2022-10-11T02:31:25.574Z,8.80
2022-10-11T02:34:02.407Z,7.10
2022-10-11T02:36:37.872Z,12.67
2022-10-11T02:39:13.738Z,14.00
2022-10-11T02:41:43.513Z,10.47
2022-10-11T02:44:17.753Z,10.47
2022-10-11T02:46:48.261Z,11.00
2022-10-11T02:49:19.831Z,8.73
2022-10-11T02:51:48.250Z,11.07
2022-10-11T02:54:16.743Z,9.90
2022-10-11T02:56:45.168Z,12.40
2022-10-11T02:59:13.740Z,12.20
2022-10-11T03:01:42.416Z,9.30
2022-10-11T03:04:10.910Z,11.53
2022-10-11T03:06:40.769Z,7.73
2022-10-11T03:09:09.414Z,9.53
2022-10-11T03:11:37.894Z,9.73
2022-10-11T03:14:06.333Z,8.33
2022-10-11T03:16:34.755Z,9.40
2022-10-11T03:19:03.593Z,12.07
2022-10-11T03:21:32.289Z,11.60
2022-10-11T03:24:02.223Z,9.23
2022-10-11T03:26:30.770Z,8.10
2022-10-11T03:28:59.386Z,8.40
2022-10-11T03:31:27.953Z,12.20
2022-10-11T03:33:56.324Z,6.93
2022-10-11T03:36:24.854Z,10.33
2022-10-11T03:38:53.325Z,8.20
2022-10-11T03:41:23.228Z,12.03
2022-10-11T03:43:51.597Z,12.60
2022-10-11T03:46:20.032Z,8.37
2022-10-11T03:48:48.563Z,8.23
2022-10-11T03:51:17.096Z,6.20
2022-10-11T03:53:45.617Z,11.47
2022-10-11T03:56:15.573Z,10.40
2022-10-11T03:58:46.340Z,12.47
2022-10-11T04:01:14.878Z,9.77
2022-10-11T04:03:43.430Z,11.57
2022-10-11T04:06:11.902Z,10.10
2022-10-11T04:08:40.315Z,11.83
2022-10-11T04:11:08.771Z,9.97
2022-10-11T04:13:38.030Z,7.90
2022-10-11T04:16:08.960Z,7.20
2022-10-11T04:18:37.486Z,14.47
2022-10-11T04:21:06.608Z,9.20
2022-10-11T04:23:35.735Z,10.43
2022-10-11T04:26:07.673Z,12.37
2022-10-11T04:28:37.350Z,10.30
2022-10-11T04:31:08.206Z,10.43
2022-10-11T04:33:36.733Z,9.83
2022-10-11T04:36:05.971Z,8.37
2022-10-11T04:38:34.864Z,10.47
2022-10-11T04:41:08.753Z,10.33
2022-10-11T04:43:37.868Z,9.07
2022-10-11T04:46:09.206Z,9.60
2022-10-11T04:48:38.347Z,8.07
2022-10-11T04:51:07.093Z,12.17
2022-10-11T04:53:35.806Z,10.33
2022-10-11T04:56:09.572Z,10.40
2022-10-11T04:58:41.051Z,6.87
2022-10-11T05:01:11.895Z,7.97
2022-10-11T05:03:40.464Z,9.33
2022-10-11T05:06:09.291Z,10.83
2022-10-11T05:08:38.275Z,9.97
2022-10-11T05:11:09.263Z,9.50
2022-10-11T05:13:37.994Z,9.33
2022-10-11T05:16:10.868Z,10.20
2022-10-11T05:18:41.924Z,9.10
2022-10-11T05:21:19.114Z,11.60
2022-10-11T05:23:49.710Z,7.07
2022-10-11T05:26:18.964Z,8.27
2022-10-11T05:28:48.367Z,11.73
2022-10-11T05:31:17.566Z,11.53
2022-10-11T05:33:47.681Z,7.93
2022-10-11T05:36:16.475Z,15.93
2022-10-11T05:38:45.163Z,12.50
2022-10-11T05:41:16.137Z,11.67
2022-10-11T05:43:46.093Z,10.87
2022-10-11T05:46:14.605Z,8.13
2022-10-11T05:48:43.131Z,8.77
2022-10-11T05:51:13.857Z,13.87
2022-10-11T05:53:42.534Z,8.43
2022-10-11T05:56:20.869Z,9.50
2022-10-11T05:58:49.994Z,10.37
2022-10-11T06:01:20.812Z,9.30
2022-10-11T06:03:49.610Z,9.33
2022-10-11T06:06:20.317Z,10.67
2022-10-11T06:08:49.547Z,10.73
2022-10-11T06:11:19.775Z,11.40
2022-10-11T06:13:49.260Z,6.97
2022-10-11T06:16:18.074Z,9.43
2022-10-11T06:18:46.734Z,10.00
2022-10-11T06:21:15.769Z,10.70
2022-10-11T06:23:45.663Z,7.93
2022-10-11T06:26:14.088Z,7.30
2022-10-11T06:28:42.558Z,12.60
2022-10-11T06:31:11.862Z,10.20
2022-10-11T06:33:40.764Z,9.47
2022-10-11T06:36:13.099Z,8.30
2022-10-11T06:38:44.946Z,6.70
2022-10-11T06:41:19.386Z,9.60
2022-10-11T06:43:49.918Z,6.63
2022-10-11T06:46:19.557Z,9.23
2022-10-11T06:49:09.511Z,8.53
2022-10-11T06:51:38.029Z,8.53
2022-10-11T06:54:06.689Z,8.17
2022-10-11T06:56:36.635Z,7.57
2022-10-11T06:59:05.327Z,7.97
2022-10-11T07:01:33.928Z,10.57
2022-10-11T07:04:03.306Z,7.23
2022-10-11T07:06:33.236Z,5.80
2022-10-11T07:09:02.800Z,6.20
2022-10-11T07:11:32.366Z,5.33
2022-10-11T07:14:04.641Z,6.23
2022-10-11T07:16:33.158Z,9.57
2022-10-11T07:19:03.429Z,7.23
2022-10-11T07:21:33.454Z,7.07
2022-10-11T07:24:02.598Z,26.97
2022-10-11T07:26:38.321Z,47.83
2022-10-11T07:29:11.835Z,5.87
2022-10-11T07:31:42.453Z,4.10
2022-10-11T07:34:11.763Z,5.23
2022-10-11T07:36:40.357Z,5.17
2022-10-11T07:39:10.985Z,8.43
2022-10-11T07:41:45.433Z,6.30
2022-10-11T07:44:16.124Z,5.87
2022-10-11T07:46:44.686Z,4.07
2022-10-11T07:49:13.160Z,6.87
2022-10-11T07:51:41.742Z,7.37
2022-10-11T07:54:10.346Z,8.10
2022-10-11T07:56:40.420Z,5.20
2022-10-11T07:59:09.217Z,5.07
2022-10-11T08:01:39.327Z,5.37
2022-10-11T08:04:07.825Z,7.67
2022-10-11T08:06:36.921Z,3.67
2022-10-11T08:09:06.943Z,6.90
2022-10-11T08:11:37.583Z,7.80
2022-10-11T08:14:11.556Z,5.83
2022-10-11T08:16:42.433Z,5.37
2022-10-11T08:19:11.992Z,6.03
2022-10-11T08:21:40.464Z,7.90
2022-10-11T08:24:09.687Z,6.97
2022-10-11T08:26:38.157Z,6.80
2022-10-11T08:29:07.015Z,4.90
2022-10-11T08:31:36.593Z,5.33
2022-10-11T08:34:06.743Z,7.63
2022-10-11T08:36:35.294Z,6.10
2022-10-11T08:39:04.983Z,4.67
2022-10-11T08:41:40.450Z,5.50
2022-10-11T08:44:21.597Z,6.10
2022-10-11T08:46:58.188Z,5.03
2022-10-11T08:49:33.903Z,4.77
2022-10-11T08:52:05.447Z,4.17
2022-10-11T08:54:40.088Z,7.23
2022-10-11T08:57:13.021Z,5.03
2022-10-11T08:59:47.328Z,6.07
2022-10-11T09:02:27.722Z,5.10
2022-10-11T09:05:03.554Z,5.63
2022-10-11T09:07:45.035Z,4.67
2022-10-11T09:10:41.043Z,5.20
2022-10-11T09:13:31.892Z,6.60
2022-10-11T09:16:12.041Z,3.83
2022-10-11T09:18:59.410Z,5.73
2022-10-11T09:21:38.817Z,6.17
2022-10-11T09:24:35.956Z,4.60
2022-10-11T09:27:11.427Z,6.13
2022-10-11T09:29:56.823Z,2.73
2022-10-11T09:32:30.369Z,7.90
2022-10-11T09:35:03.157Z,4.40
2022-10-11T09:37:41.483Z,4.63
2022-10-11T09:40:23.668Z,5.77
2022-10-11T09:42:52.597Z,5.87
2022-10-11T09:45:23.328Z,3.60
2022-10-11T09:47:54.051Z,3.53
2022-10-11T09:50:26.417Z,5.77
2022-10-11T09:52:58.464Z,6.93
2022-10-11T09:55:37.335Z,3.77
2022-10-11T09:58:06.709Z,4.27
2022-10-11T10:00:35.837Z,7.07
2022-10-11T10:03:06.137Z,7.07
2022-10-11T10:05:37.200Z,5.77
2022-10-11T10:08:25.626Z,6.63
2022-10-11T10:11:02.526Z,6.37
2022-10-11T10:13:45.520Z,5.93
2022-10-11T10:16:26.078Z,5.87
2022-10-11T10:18:58.366Z,5.73
2022-10-11T10:21:31.651Z,8.07
2022-10-11T10:24:09.774Z,4.20
2022-10-11T10:26:40.183Z,2.63
2022-10-11T10:29:20.651Z,4.83
2022-10-11T10:34:58.342Z,4.27
2022-10-11T10:37:30.728Z,3.90
2022-10-11T10:40:07.098Z,5.87
2022-10-11T10:42:35.668Z,3.50
2022-10-11T10:45:07.317Z,3.17
2022-10-11T10:47:58.777Z,4.83
2022-10-11T10:50:33.471Z,3.77
2022-10-11T10:53:15.876Z,5.23
2022-10-11T10:55:49.079Z,6.90
2022-10-11T10:58:32.618Z,3.43
2022-10-11T11:01:07.844Z,3.73
2022-10-11T11:03:43.948Z,3.07
2022-10-11T11:06:22.626Z,4.03
2022-10-11T11:09:05.641Z,5.43
2022-10-11T11:11:49.494Z,4.07
2022-10-11T11:14:28.286Z,3.80
2022-10-11T11:17:06.408Z,1.60
2022-10-11T11:19:48.837Z,2.77
2022-10-11T11:22:32.613Z,5.40
2022-10-11T11:25:15.058Z,7.57
2022-10-11T11:27:56.416Z,3.53
2022-10-11T11:30:30.947Z,3.73
2022-10-11T11:33:11.428Z,5.83
2022-10-11T11:35:43.886Z,4.93
2022-10-11T11:38:18.108Z,5.53
2022-10-11T11:40:50.994Z,3.73
2022-10-11T11:43:27.972Z,6.10
2022-10-11T11:46:01.464Z,3.57
2022-10-11T11:48:29.950Z,3.57
2022-10-11T11:51:10.354Z,2.47
2022-10-11T11:53:55.527Z,2.00
2022-10-11T11:56:32.710Z,2.57
2022-10-11T11:59:11.698Z,1.77
2022-10-11T12:01:49.756Z,3.90
2022-10-11T12:04:28.837Z,2.53
2022-10-11T12:07:17.515Z,1.97
2022-10-11T12:09:50.775Z,3.50
2022-10-11T12:12:32.246Z,5.47
2022-10-11T12:15:18.033Z,4.83
2022-10-11T12:18:14.454Z,4.27
2022-10-11T12:20:44.686Z,3.60
2022-10-11T12:23:45.701Z,4.23
2022-10-11T12:26:20.944Z,3.33
2022-10-11T12:29:07.028Z,4.60
2022-10-11T12:31:43.745Z,3.20
2022-10-11T12:34:36.301Z,4.70
2022-10-11T12:37:37.671Z,2.70
2022-10-11T12:40:36.428Z,5.63
2022-10-11T12:43:24.159Z,6.27
2022-10-11T12:45:52.950Z,3.73
2022-10-11T12:48:53.098Z,2.30
2022-10-11T12:51:34.590Z,4.47
2022-10-11T12:54:38.050Z,4.83
2022-10-11T12:57:46.095Z,1.80
2022-10-11T13:00:24.042Z,5.03
2022-10-11T13:02:52.633Z,3.63
2022-10-11T13:05:27.377Z,4.67
2022-10-11T13:07:59.196Z,4.73
2022-10-11T13:10:34.187Z,4.33
2022-10-11T13:13:04.769Z,5.13
2022-10-11T13:15:33.588Z,4.20
2022-10-11T13:18:02.513Z,4.87
2022-10-11T13:20:38.907Z,2.93
2022-10-11T13:23:23.191Z,3.40
2022-10-11T13:25:52.198Z,2.57
2022-10-11T13:28:22.119Z,5.10
2022-10-11T13:30:54.378Z,4.43
2022-10-11T13:33:25.386Z,2.20
2022-10-11T13:35:55.469Z,6.47
2022-10-11T13:38:27.426Z,3.47
2022-10-11T13:40:58.095Z,3.57
2022-10-11T13:43:28.827Z,3.30
2022-10-11T13:46:00.049Z,5.97
2022-10-11T13:48:31.905Z,4.77
2022-10-11T13:51:17.079Z,3.60
2022-10-11T13:53:58.756Z,3.30
2022-10-11T13:56:28.487Z,8.13
2022-10-11T13:58:57.267Z,3.87
2022-10-11T14:01:28.600Z,2.00
2022-10-11T14:04:00.516Z,2.83
2022-10-11T14:06:43.601Z,2.70
2022-10-11T14:09:20.464Z,6.37
2022-10-11T14:11:49.751Z,6.67
2022-10-11T14:14:41.404Z,14.37
2022-10-11T14:17:16.185Z,20.90
2022-10-11T14:19:45.609Z,12.30
2022-10-11T14:22:17.353Z,10.23
2022-10-11T14:24:49.467Z,10.17
2022-10-11T14:27:21.711Z,4.97
2022-10-11T14:30:19.946Z,3.03
2022-10-11T14:32:40.114Z,4.03
2022-10-11T14:35:17.052Z,3.17
2022-10-11T14:37:47.427Z,3.37
2022-10-11T14:40:19.069Z,4.40
2022-10-11T14:42:48.186Z,5.00
2022-10-11T14:45:16.944Z,4.97
2022-10-11T14:47:46.135Z,4.30
2022-10-11T14:50:31.845Z,4.97
2022-10-11T14:53:01.939Z,4.83
2022-10-11T14:55:32.612Z,4.27
2022-10-11T14:58:01.269Z,3.97
2022-10-11T15:00:31.536Z,4.47
2022-10-11T15:03:00.904Z,5.37
2022-10-11T15:05:34.217Z,3.63
2022-10-11T15:08:05.739Z,4.03
2022-10-11T15:10:37.736Z,3.37
2022-10-11T15:13:08.328Z,3.37
2022-10-11T15:15:38.388Z,4.47
2022-10-11T15:18:09.428Z,4.77
2022-10-11T15:20:41.266Z,4.07
2022-10-11T15:23:12.409Z,5.07
2022-10-11T15:25:42.569Z,6.20
2022-10-11T15:28:20.601Z,3.70
2022-10-11T15:30:49.143Z,7.97
2022-10-11T15:33:17.561Z,4.77
2022-10-11T15:35:46.032Z,5.50
2022-10-11T15:38:18.879Z,7.00
2022-10-11T15:40:47.904Z,8.87
2022-10-11T15:43:22.043Z,9.50
2022-10-11T15:45:53.048Z,15.43
2022-10-11T15:48:23.964Z,8.70
2022-10-11T15:50:52.818Z,6.10
2022-10-11T15:53:25.192Z,4.57
2022-10-11T15:55:55.621Z,9.50
2022-10-11T15:58:26.299Z,6.63
2022-10-11T16:00:56.705Z,6.23
2022-10-11T16:03:27.306Z,7.20
2022-10-11T16:05:58.063Z,5.40
2022-10-11T16:08:30.947Z,7.70
2022-10-11T16:11:00.853Z,9.07
2022-10-11T16:13:29.426Z,7.73
2022-10-11T16:15:57.923Z,8.20
2022-10-11T16:18:26.630Z,6.70
2022-10-11T16:20:56.199Z,6.70
2022-10-11T16:23:24.738Z,6.67
2022-10-11T16:26:02.750Z,7.17
2022-10-11T16:28:32.314Z,9.63
2022-10-11T16:31:01.294Z,6.13
2022-10-11T16:33:32.035Z,5.37
2022-10-11T16:36:20.514Z,6.00
2022-10-11T16:38:48.968Z,7.80
2022-10-11T16:41:18.880Z,8.87
2022-10-11T16:43:51.355Z,12.57
2022-10-11T16:46:19.943Z,6.37
2022-10-11T16:48:48.828Z,10.17
2022-10-11T16:51:17.428Z,9.40
2022-10-11T16:53:46.006Z,19.30
2022-10-11T16:56:14.532Z,9.37
2022-10-11T16:58:44.432Z,10.70
2022-10-11T17:01:13.118Z,4.80
2022-10-11T17:03:41.594Z,3.77
2022-10-11T17:06:10.169Z,3.07
2022-10-11T17:08:38.907Z,5.90
2022-10-11T17:11:07.673Z,3.13
2022-10-11T17:13:36.249Z,8.17
2022-10-11T17:16:07.233Z,7.10
2022-10-11T17:18:35.938Z,2.47
2022-10-11T17:21:05.295Z,5.60
2022-10-11T17:23:35.015Z,3.30
2022-10-11T17:26:10.085Z,4.97
2022-10-11T17:28:39.713Z,5.17
2022-10-11T17:31:10.375Z,5.13
2022-10-11T17:33:42.063Z,4.73
2022-10-11T17:36:17.189Z,2.97
2022-10-11T17:38:45.892Z,6.67
2022-10-11T17:41:14.774Z,4.50
2022-10-11T17:43:43.563Z,9.60
2022-10-11T17:46:15.728Z,7.83
2022-10-11T17:48:45.592Z,8.33
2022-10-11T17:51:16.556Z,25.33
2022-10-11T17:53:46.205Z,14.30
2022-10-11T17:56:17.413Z,20.27
2022-10-11T17:58:46.819Z,45.47
2022-10-11T18:01:19.076Z,117.93
2022-10-11T18:03:53.818Z,185.83
2022-10-11T18:06:22.707Z,120.70
2022-10-11T18:08:51.461Z,110.70
2022-10-11T18:11:22.340Z,144.53
2022-10-11T18:13:53.709Z,129.30
2022-10-11T18:16:27.234Z,127.93
2022-10-11T18:18:57.602Z,95.07
2022-10-11T18:21:29.969Z,79.73
2022-10-11T18:24:03.256Z,64.67
2022-10-11T18:26:31.734Z,70.40
2022-10-11T18:29:00.717Z,76.93
2022-10-11T18:31:34.141Z,305.63
2022-10-11T18:34:03.148Z,506.87
2022-10-11T18:36:32.560Z,165.77
2022-10-11T18:39:04.010Z,105.70
2022-10-11T18:41:34.037Z,54.00
2022-10-11T18:44:04.592Z,39.00
2022-10-11T18:46:34.877Z,46.30
2022-10-11T18:49:03.674Z,42.77
2022-10-11T18:51:33.859Z,38.53
2022-10-11T18:54:02.852Z,38.80
2022-10-11T18:56:33.230Z,34.90
2022-10-11T18:59:02.885Z,33.77
2022-10-11T19:01:34.959Z,26.83
2022-10-11T19:04:04.739Z,27.43
2022-10-11T19:06:35.608Z,27.73
2022-10-11T19:09:06.871Z,23.17
2022-10-11T19:11:35.474Z,23.43
2022-10-11T19:14:07.895Z,63.43
2022-10-11T19:16:40.714Z,96.80
2022-10-11T19:19:12.593Z,25.30
2022-10-11T19:21:41.586Z,22.57
2022-10-11T19:24:10.454Z,26.83
2022-10-11T19:26:41.523Z,24.50
2022-10-11T19:29:13.788Z,28.57
2022-10-11T19:31:48.836Z,36.00
2022-10-11T19:34:17.930Z,32.77
2022-10-11T19:36:46.703Z,40.83
2022-10-11T19:39:17.175Z,52.07
2022-10-11T19:41:46.738Z,46.63
2022-10-11T19:44:15.885Z,47.87
2022-10-11T19:46:54.137Z,57.50
2022-10-11T19:49:25.397Z,60.10
2022-10-11T19:51:55.721Z,61.10
2022-10-11T19:54:24.667Z,63.70
2022-10-11T19:56:53.484Z,68.27
2022-10-11T19:59:22.265Z,61.17
2022-10-11T20:01:53.315Z,66.90
2022-10-11T20:07:11.749Z,57.53
2022-10-11T20:09:40.268Z,55.73
2022-10-11T20:12:09.201Z,51.63
2022-10-11T20:14:37.593Z,58.23
2022-10-11T20:17:07.630Z,51.43
2022-10-11T20:19:36.156Z,54.27
2022-10-11T20:22:04.811Z,53.53
2022-10-11T20:24:37.336Z,59.37
2022-10-11T20:27:06.942Z,48.43
2022-10-11T20:29:35.726Z,48.90
2022-10-11T20:32:04.372Z,55.03
2022-10-11T20:34:34.303Z,60.93
2022-10-11T20:37:02.891Z,56.83
2022-10-11T20:39:31.353Z,54.53
2022-10-11T20:41:59.854Z,57.00
2022-10-11T20:44:28.263Z,66.23
2022-10-11T20:47:00.298Z,53.47
2022-10-11T20:49:31.584Z,55.57
2022-10-11T20:52:01.704Z,53.97
2022-10-11T20:54:31.015Z,48.27
2022-10-11T20:57:00.517Z,43.43
2022-10-11T20:59:29.346Z,42.70
2022-10-11T21:01:57.803Z,37.53
2022-10-11T21:04:26.513Z,40.37
2022-10-11T21:06:54.968Z,28.70
2022-10-11T21:09:25.090Z,29.30
2022-10-11T21:11:53.610Z,30.00
2022-10-11T21:14:22.360Z,34.73
2022-10-11T21:16:51.067Z,35.23
2022-10-11T21:19:19.635Z,31.60
2022-10-11T21:21:53.281Z,30.47
2022-10-11T21:24:22.980Z,30.67
2022-10-11T21:26:56.945Z,31.67
2022-10-11T21:29:28.574Z,34.30
2022-10-11T21:31:57.125Z,32.80
2022-10-11T21:34:25.635Z,34.17
2022-10-11T21:36:54.188Z,35.43
2022-10-11T21:39:22.798Z,34.37
2022-10-11T21:41:52.799Z,27.53
2022-10-11T21:44:21.423Z,23.47
2022-10-11T21:49:38.525Z,19.03
2022-10-11T21:52:07.565Z,26.47
2022-10-11T21:54:36.127Z,28.40
2022-10-11T21:57:06.541Z,28.70
2022-10-11T21:59:35.346Z,25.53
2022-10-11T22:02:03.885Z,30.47
2022-10-11T22:04:32.551Z,29.37
2022-10-11T22:07:00.991Z,28.23
2022-10-11T22:09:30.114Z,34.33
2022-10-11T22:11:59.503Z,36.47
2022-10-11T22:14:30.144Z,35.97
2022-10-11T22:16:59.154Z,37.37
2022-10-11T22:19:27.671Z,42.70
2022-10-11T22:21:56.115Z,41.77
2022-10-11T22:24:24.747Z,50.80
2022-10-11T22:26:53.330Z,51.27
2022-10-11T22:29:21.772Z,52.57
2022-10-11T22:31:51.935Z,50.93
2022-10-11T22:34:20.597Z,55.43
2022-10-11T22:36:49.411Z,54.77
2022-10-11T22:39:17.976Z,69.67
2022-10-11T22:41:46.774Z,62.07
2022-10-11T22:44:15.457Z,72.53
2022-10-11T22:46:44.054Z,62.77
2022-10-11T22:49:14.582Z,66.07
2022-10-11T22:51:43.294Z,72.73
2022-10-11T22:54:13.405Z,69.83
2022-10-11T22:56:41.982Z,65.23
2022-10-11T22:59:10.677Z,74.13
2022-10-11T23:01:39.154Z,68.37
2022-10-11T23:04:07.819Z,62.13
2022-10-11T23:06:37.766Z,63.87
2022-10-11T23:09:06.366Z,66.63
2022-10-11T23:11:34.852Z,61.40
2022-10-11T23:14:03.530Z,61.10
2022-10-11T23:16:32.137Z,63.93
2022-10-11T23:19:00.721Z,66.33
2022-10-11T23:21:29.215Z,65.40
2022-10-11T23:23:59.155Z,71.00
2022-10-11T23:26:28.034Z,72.57
2022-10-11T23:28:57.486Z,76.87
2022-10-11T23:31:26.024Z,67.40
2022-10-11T23:33:55.218Z,73.87
2022-10-11T23:36:25.308Z,72.00
2022-10-11T23:38:56.197Z,64.77
2022-10-11T23:41:29.082Z,63.40
2022-10-11T23:43:58.473Z,61.10
2022-10-11T23:46:27.170Z,53.53
2022-10-11T23:48:55.760Z,56.77
2022-10-11T23:51:24.241Z,51.93
2022-10-11T23:53:52.737Z,47.07
2022-10-11T23:56:21.561Z,45.13
2022-10-11T23:58:51.441Z,43.47
